< Cyclone 196005 1960 Season Cyclone 196007 >
Cyclone 196006 (unnamed)
General InformationTrack Information on Google Maps || ResourceGoogle EarthGE AnimationAtom FeedGeoJSON
Detalied Best Track (Time Zone = UTC)
Year Month Day Hour Lat. Long. Pressure (hPa) Wind (kt) Class Image Chart
1960 3 14 23 -12.3 149.0 1005 0 0 -- --
1960 3 15 11 -12.4 147.9 1002 0 0 -- --
1960 3 15 23 -12.4 147.2 1002 0 0 -- --
1960 3 16 11 -12.4 146.7 1002 0 0 -- --
1960 3 16 23 -12.4 146.2 1002 0 0 -- --
1960 3 17 11 -12.4 145.7 1002 0 0 -- --
1960 3 17 23 -12.4 145.3 1002 0 0 -- --
1960 3 18 11 -12.4 145.0 1002 0 0 -- --
1960 3 18 23 -12.4 144.3 1002 0 0 -- --
1960 3 19 11 -12.4 144.0 1002 0 0 -- --
1960 3 19 23 -12.4 143.5 1000 0 0 -- --
1960 3 20 05 -12.4 143.2 998 0 0 -- --
1960 3 20 11 -12.3 142.8 1000 0 0 -- --
1960 3 20 17 -12.4 141.8 1002 0 0 -- --
1960 3 20 18 -12.5 141.6 1002 0 0 -- --
1960 3 20 23 -12.9 140.2 1003 0 0 -- --
1960 3 21 05 -13.2 138.6 1003 0 0 -- --
1960 3 23 10 -13.2 126.0 980 0 0 -- --
1960 3 24 01 -14.9 121.5 975 0 0 -- --
1960 3 24 10 -15.7 119.5 973 0 0 -- --
1960 3 25 01 -17.6 116.5 970 0 0 -- --
1960 3 25 13 -18.9 115.2 967.5 0 0 -- --
1960 3 26 01 -20.9 114.0 965 0 0 -- --
1960 3 26 10 -22.4 113.5 965 0 0 -- --
1960 3 26 14 -23.9 113.3 965 0 0 -- --
1960 3 26 16 -24.6 113.5 965 0 0 -- --
1960 3 26 19 -25.9 113.9 980 0 0 -- --
1960 3 26 20 -26.4 114.0 980 0 0 -- --
1960 3 26 22 -27.6 114.3 990 0 0 -- --
1960 3 27 01 -29.3 114.9 994 0 0 -- --
1960 3 27 07 -32.1 115.3 996 0 0 -- --
< Cyclone 196005 1960 Season Cyclone 196007 >

Help